createdAt,value
2018-07-03T00:02:13.270Z,95237.67
2018-07-03T00:04:39.556Z,95241.64
2018-07-03T00:07:05.529Z,95246.34
2018-07-03T00:09:31.606Z,95251.45
2018-07-03T00:11:57.715Z,95254.62
2018-07-03T00:14:23.760Z,95247.72
2018-07-03T00:16:50.132Z,95252.27
2018-07-03T00:19:16.374Z,95243.59
2018-07-03T00:21:42.560Z,95242.05
2018-07-03T00:24:08.652Z,95242.05
2018-07-03T00:26:34.732Z,95251.29
2018-07-03T00:29:00.794Z,95252.47
2018-07-03T00:31:26.856Z,95256.80
2018-07-03T00:33:52.908Z,95259.36
2018-07-03T00:36:18.969Z,95256.23
2018-07-03T00:38:44.980Z,95261.15
2018-07-03T00:41:11.047Z,95258.39
2018-07-03T00:43:37.059Z,95258.80
2018-07-03T00:46:03.624Z,95261.95
2018-07-03T00:48:29.608Z,95259.60
2018-07-03T00:50:55.651Z,95268.45
2018-07-03T00:53:21.777Z,95257.82
2018-07-03T00:55:48.044Z,95262.12
2018-07-03T00:58:14.057Z,95264.71
2018-07-03T01:00:40.274Z,95260.98
2018-07-03T01:03:06.339Z,95257.86
2018-07-03T01:05:33.025Z,95258.22
2018-07-03T01:07:59.095Z,95260.41
2018-07-03T01:10:25.221Z,95264.14
2018-07-03T01:12:51.434Z,95254.90
2018-07-03T01:15:17.765Z,95258.44
2018-07-03T01:17:44.218Z,95260.01
2018-07-03T01:20:10.598Z,95263.38
2018-07-03T01:22:36.735Z,95265.92
2018-07-03T01:25:02.794Z,95274.41
2018-07-03T01:27:28.979Z,95271.08
2018-07-03T01:29:55.313Z,95273.43
2018-07-03T01:32:21.533Z,95270.48
2018-07-03T01:34:47.984Z,95266.75
2018-07-03T01:37:14.165Z,95269.09
2018-07-03T01:39:40.205Z,95265.16
2018-07-03T01:42:06.225Z,95265.16
2018-07-03T01:44:32.636Z,95263.59
2018-07-03T01:46:59.215Z,95265.56
2018-07-03T01:49:25.751Z,95264.19
2018-07-03T01:51:51.997Z,95262.05
2018-07-03T01:54:18.001Z,95261.23
2018-07-03T01:56:44.091Z,95260.83
2018-07-03T01:59:10.476Z,95256.31
2018-07-03T02:01:37.101Z,95250.40
2018-07-03T02:04:03.326Z,95254.94
2018-07-03T02:06:29.554Z,95251.58
2018-07-03T02:08:55.796Z,95260.66
2018-07-03T02:11:25.052Z,95259.85
2018-07-03T02:13:51.221Z,95268.36
2018-07-03T02:16:17.965Z,95277.20
2018-07-03T02:18:44.497Z,95276.64
2018-07-03T02:21:11.020Z,95267.77
2018-07-03T02:23:37.505Z,95260.50
2018-07-03T02:26:03.817Z,95264.44
2018-07-03T02:28:30.115Z,95266.38
2018-07-03T02:30:56.203Z,95275.06
2018-07-03T02:33:25.756Z,95285.31
2018-07-03T02:35:54.939Z,95277.41
2018-07-03T02:38:20.978Z,95276.84
2018-07-03T02:40:47.349Z,95283.33
2018-07-03T02:43:13.371Z,95290.23
2018-07-03T02:45:42.664Z,95291.61
2018-07-03T02:48:09.251Z,95295.73
2018-07-03T02:50:35.424Z,95296.55
2018-07-03T02:53:01.719Z,95296.55
2018-07-03T02:55:27.837Z,95294.36
2018-07-03T02:57:54.159Z,95300.69
2018-07-03T03:00:20.299Z,95310.34
2018-07-03T03:02:46.631Z,95307.58
2018-07-03T03:05:13.379Z,95302.88
2018-07-03T03:07:39.502Z,95305.44
2018-07-03T03:10:06.223Z,95305.23
2018-07-03T03:12:32.399Z,95298.54
2018-07-03T03:14:58.756Z,95303.66
2018-07-03T03:17:24.910Z,95307.78
2018-07-03T03:19:51.111Z,95307.63
2018-07-03T03:22:17.120Z,95304.46
2018-07-03T03:24:43.525Z,95316.47
2018-07-03T03:27:09.984Z,95308.59
2018-07-03T03:29:36.590Z,95309.97
2018-07-03T03:32:02.887Z,95308.59
2018-07-03T03:34:29.028Z,95317.44
2018-07-03T03:36:55.050Z,95314.92
2018-07-03T03:39:21.261Z,95310.50
2018-07-03T03:41:47.595Z,95309.00
2018-07-03T03:44:13.939Z,95302.11
2018-07-03T03:46:40.457Z,95309.00
2018-07-03T03:49:07.191Z,95305.67
2018-07-03T03:51:33.947Z,95310.78
2018-07-03T03:54:00.579Z,95302.11
2018-07-03T03:56:26.939Z,95302.52
2018-07-03T03:58:53.066Z,95300.56
2018-07-03T04:01:19.365Z,95306.48
2018-07-03T04:03:45.900Z,95313.95
2018-07-03T04:06:13.048Z,95312.97
2018-07-03T04:08:39.088Z,95313.37
2018-07-03T04:11:05.166Z,95305.48
2018-07-03T04:13:31.213Z,95312.38
2018-07-03T04:15:57.471Z,95310.62
2018-07-03T04:18:23.496Z,95311.40
2018-07-03T04:20:49.808Z,95320.48
2018-07-03T04:23:16.770Z,95329.16
2018-07-03T04:25:43.355Z,95322.27
2018-07-03T04:28:12.378Z,95326.97
2018-07-03T04:30:38.553Z,95326.80
2018-07-03T04:33:04.643Z,95332.72
2018-07-03T04:35:30.894Z,95335.08
2018-07-03T04:37:57.266Z,95337.23
2018-07-03T04:40:23.924Z,95338.23
2018-07-03T04:42:50.721Z,95346.51
2018-07-03T04:45:17.262Z,95345.91
2018-07-03T04:47:45.379Z,95336.26
2018-07-03T04:50:12.896Z,95339.98
2018-07-03T04:52:38.720Z,95339.02
2018-07-03T04:55:04.829Z,95344.53
2018-07-03T04:57:30.929Z,95348.09
2018-07-03T04:59:56.936Z,95352.80
2018-07-03T05:02:24.161Z,95353.61
2018-07-03T05:04:50.420Z,95347.94
2018-07-03T05:07:16.466Z,95357.75
2018-07-03T05:09:43.303Z,95349.48
2018-07-03T05:12:12.443Z,95350.28
2018-07-03T05:14:38.627Z,95347.53
2018-07-03T05:17:04.842Z,95352.45
2018-07-03T05:19:31.116Z,95354.42
2018-07-03T05:21:57.115Z,95351.66
2018-07-03T05:24:23.123Z,95354.23
2018-07-03T05:26:49.216Z,95350.69
2018-07-03T05:29:15.331Z,95346.93
2018-07-03T05:31:41.420Z,95344.58
2018-07-03T05:34:07.487Z,95341.82
2018-07-03T05:36:34.063Z,95347.73
2018-07-03T05:39:00.410Z,95344.17
2018-07-03T05:41:26.791Z,95351.87
2018-07-03T05:43:53.266Z,95349.92
2018-07-03T05:46:19.462Z,95350.50
2018-07-03T05:48:48.135Z,95340.68
2018-07-03T05:51:14.311Z,95348.55
2018-07-03T05:53:40.372Z,95344.00
2018-07-03T05:56:06.526Z,95341.66
2018-07-03T05:58:33.419Z,95338.33
2018-07-03T06:00:59.706Z,95338.33
2018-07-03T06:03:26.212Z,95327.87
2018-07-03T06:05:52.326Z,95329.65
2018-07-03T06:08:18.453Z,95327.30
2018-07-03T06:10:44.592Z,95324.91
2018-07-03T06:13:10.748Z,95332.81
2018-07-03T06:15:37.236Z,95334.56
2018-07-03T06:18:03.473Z,95334.97
2018-07-03T06:20:29.993Z,95324.34
2018-07-03T06:22:56.468Z,95333.59
2018-07-03T06:25:22.692Z,95328.88
2018-07-03T06:27:48.996Z,95322.97
2018-07-03T06:30:15.206Z,95320.61
2018-07-03T06:32:41.226Z,95325.16
2018-07-03T06:35:07.351Z,95324.34
2018-07-03T06:37:33.370Z,95319.80
2018-07-03T06:39:59.427Z,95319.64
2018-07-03T06:42:25.538Z,95316.88
2018-07-03T06:44:51.648Z,95317.69
2018-07-03T06:47:17.865Z,95318.66
2018-07-03T06:49:43.916Z,95317.85
2018-07-03T06:52:09.955Z,95315.50
2018-07-03T06:54:36.434Z,95315.91
2018-07-03T06:57:03.785Z,95319.44
2018-07-03T06:59:29.041Z,95316.69
2018-07-03T07:01:56.845Z,95320.82
2018-07-03T07:04:22.987Z,95323.01
2018-07-03T07:06:49.169Z,95311.98
2018-07-03T07:09:15.604Z,95322.03
2018-07-03T07:11:41.513Z,95312.55
2018-07-03T07:14:08.083Z,95315.95
2018-07-03T07:16:34.259Z,95314.16
2018-07-03T07:19:00.340Z,95312.38
2018-07-03T07:21:26.406Z,95310.03
2018-07-03T07:23:52.397Z,95312.59
2018-07-03T07:26:18.505Z,95311.61
2018-07-03T07:28:44.540Z,95312.22
2018-07-03T07:31:10.555Z,95312.99
2018-07-03T07:33:36.898Z,95313.59
2018-07-03T07:36:03.008Z,95313.97
2018-07-03T07:38:29.122Z,95312.59
2018-07-03T07:40:55.149Z,95307.07
2018-07-03T07:43:21.184Z,95303.94
2018-07-03T07:45:47.200Z,95300.59
2018-07-03T07:48:13.429Z,95304.31
2018-07-03T07:50:39.426Z,95303.75
2018-07-03T07:53:05.432Z,95300.59
2018-07-03T07:55:31.533Z,95298.47
2018-07-03T07:57:57.554Z,95298.84
2018-07-03T08:00:23.649Z,95297.47
2018-07-03T08:02:49.658Z,95297.66
2018-07-03T08:05:15.868Z,95293.93
2018-07-03T08:07:41.914Z,95294.70
2018-07-03T08:10:08.021Z,95291.58
2018-07-03T08:12:34.097Z,95295.11
2018-07-03T08:15:00.276Z,95297.09
2018-07-03T08:17:26.380Z,95291.95
2018-07-03T08:19:52.403Z,95289.59
2018-07-03T08:22:18.697Z,95283.51
2018-07-03T08:24:45.107Z,95284.48
2018-07-03T08:27:11.089Z,95282.13
2018-07-03T08:29:37.345Z,95282.53
2018-07-03T08:32:03.351Z,95284.48
2018-07-03T08:34:29.431Z,95284.72
2018-07-03T08:36:55.534Z,95276.45
2018-07-03T08:39:21.565Z,95282.53
2018-07-03T08:41:47.622Z,95278.61
2018-07-03T08:44:13.655Z,95280.95
2018-07-03T08:46:39.696Z,95280.95
2018-07-03T08:49:05.894Z,95281.20
2018-07-03T08:51:32.009Z,95275.84
2018-07-03T08:53:58.071Z,95283.95
2018-07-03T08:56:24.130Z,95276.86
2018-07-03T08:58:50.440Z,95274.30
2018-07-03T09:01:16.462Z,95271.14
2018-07-03T09:03:42.514Z,95270.38
2018-07-03T09:06:08.683Z,95271.55
2018-07-03T09:08:34.727Z,95270.57
2018-07-03T09:11:00.784Z,95272.35
2018-07-03T09:13:26.823Z,95266.44
2018-07-03T09:15:52.859Z,95266.84
2018-07-03T09:18:18.874Z,95265.26
2018-07-03T09:20:45.067Z,95262.50
2018-07-03T09:23:11.338Z,95253.83
2018-07-03T09:25:37.358Z,95249.12
2018-07-03T09:28:03.369Z,95250.50
2018-07-03T09:30:29.461Z,95249.52
2018-07-03T09:32:55.439Z,95247.17
2018-07-03T09:35:21.773Z,95243.44
2018-07-03T09:37:47.908Z,95240.27
2018-07-03T09:40:14.319Z,95243.08
2018-07-03T09:42:40.291Z,95237.72
2018-07-03T09:45:06.296Z,95233.82
2018-07-03T09:47:34.012Z,95236.58
2018-07-03T09:50:00.226Z,95229.28
2018-07-03T09:52:26.233Z,95227.33
2018-07-03T09:54:52.322Z,95229.69
2018-07-03T09:57:18.247Z,95223.00
2018-07-03T09:59:44.253Z,95222.42
2018-07-03T10:02:10.262Z,95217.72
2018-07-03T10:04:36.266Z,95218.28
2018-07-03T10:07:02.289Z,95212.77
2018-07-03T10:09:28.297Z,95211.80
2018-07-03T10:11:54.302Z,95215.33
2018-07-03T10:14:20.301Z,95210.22
2018-07-03T10:16:46.329Z,95209.81
2018-07-03T10:19:12.339Z,95210.62
2018-07-03T10:21:38.358Z,95211.44
2018-07-03T10:24:04.364Z,95211.84
2018-07-03T10:26:30.365Z,95216.38
2018-07-03T10:28:56.376Z,95217.76
2018-07-03T10:31:22.392Z,95213.02
2018-07-03T10:33:48.399Z,95208.71
2018-07-03T10:36:14.410Z,95214.23
2018-07-03T10:38:40.470Z,95211.06
2018-07-03T10:41:06.530Z,95207.73
2018-07-03T10:43:32.472Z,95204.01
2018-07-03T10:45:58.549Z,95211.68
2018-07-03T10:48:24.548Z,95207.95
2018-07-03T10:50:50.556Z,95205.19
2018-07-03T10:53:16.563Z,95195.77
2018-07-03T10:55:42.579Z,95200.88
2018-07-03T10:58:08.585Z,95193.22
2018-07-03T11:00:34.592Z,95203.44
2018-07-03T11:03:00.628Z,95197.19
2018-07-03T11:05:26.621Z,95188.10
2018-07-03T11:07:52.631Z,95182.98
2018-07-03T11:10:18.643Z,95186.16
2018-07-03T11:12:44.646Z,95182.80
2018-07-03T11:15:10.671Z,95181.41
2018-07-03T11:17:36.681Z,95179.87
2018-07-03T11:20:02.715Z,95172.73
2018-07-03T11:22:28.698Z,95179.30
2018-07-03T11:24:54.742Z,95183.23
2018-07-03T11:27:20.785Z,95182.83
2018-07-03T11:29:46.787Z,95186.23
2018-07-03T11:32:12.793Z,95180.11
2018-07-03T11:34:38.796Z,95175.97
2018-07-03T11:37:04.790Z,95166.55
2018-07-03T11:39:30.799Z,95162.42
2018-07-03T11:41:56.835Z,95169.31
2018-07-03T11:44:22.812Z,95165.58
2018-07-03T11:46:48.826Z,95163.22
2018-07-03T11:49:14.856Z,95165.38
2018-07-03T11:51:40.863Z,95164.41
2018-07-03T11:54:06.867Z,95164.81
2018-07-03T11:56:32.874Z,95158.52
2018-07-03T11:58:58.891Z,95159.49
2018-07-03T12:01:24.911Z,95153.81
2018-07-03T12:03:50.910Z,95153.00
2018-07-03T12:06:16.941Z,95148.29
2018-07-03T12:08:42.974Z,95144.16
2018-07-03T12:11:08.998Z,95140.99
2018-07-03T12:13:34.980Z,95143.38
2018-07-03T12:16:00.979Z,95138.27
2018-07-03T12:18:27.012Z,95135.91
2018-07-03T12:20:53.021Z,95129.42
2018-07-03T12:23:19.027Z,95129.02
2018-07-03T12:25:45.032Z,95122.13
2018-07-03T12:28:11.029Z,95124.70
2018-07-03T12:30:37.038Z,95117.41
2018-07-03T12:33:03.039Z,95117.81
2018-07-03T12:35:29.047Z,95110.72
2018-07-03T12:37:55.049Z,95111.52
2018-07-03T12:40:21.065Z,95111.12
2018-07-03T12:42:47.068Z,95111.33
2018-07-03T12:45:13.088Z,95110.55
2018-07-03T12:47:39.097Z,95102.27
2018-07-03T12:50:05.106Z,95102.67
2018-07-03T12:52:31.114Z,95098.13
2018-07-03T12:54:57.128Z,95104.05
2018-07-03T12:57:23.130Z,95098.33
2018-07-03T12:59:49.135Z,95098.73
2018-07-03T13:02:15.198Z,95102.70
2018-07-03T13:04:41.152Z,95103.08
2018-07-03T13:07:07.179Z,95097.97
2018-07-03T13:09:33.227Z,95101.70
2018-07-03T13:11:59.236Z,95101.13
2018-07-03T13:14:25.241Z,95101.94
2018-07-03T13:16:51.259Z,95103.08
2018-07-03T13:19:17.263Z,95107.05
2018-07-03T13:21:43.272Z,95101.53
2018-07-03T13:24:09.305Z,95105.50
2018-07-03T13:26:35.275Z,95105.50
2018-07-03T13:29:01.283Z,95109.64
2018-07-03T13:31:27.314Z,95109.23
2018-07-03T13:33:53.295Z,95109.64
2018-07-03T13:36:19.295Z,95109.23
2018-07-03T13:38:45.303Z,95111.39
2018-07-03T13:41:11.304Z,95112.77
2018-07-03T13:43:37.337Z,95106.69
2018-07-03T13:46:03.310Z,95112.20
2018-07-03T13:48:29.404Z,95116.74
2018-07-03T13:50:55.319Z,95109.04
2018-07-03T13:53:21.356Z,95105.30
2018-07-03T13:55:47.363Z,95106.52
2018-07-03T13:58:13.370Z,95107.09
2018-07-03T14:00:39.373Z,95107.48
2018-07-03T14:03:05.379Z,95104.53
2018-07-03T14:05:31.386Z,95106.92
2018-07-03T14:07:57.403Z,95102.84
2018-07-03T14:10:23.410Z,95101.20
2018-07-03T14:12:49.413Z,95107.55
2018-07-03T14:15:15.413Z,95105.98
2018-07-03T14:17:41.423Z,95103.62
2018-07-03T14:20:07.446Z,95103.45
2018-07-03T14:22:33.448Z,95102.88
2018-07-03T14:24:59.460Z,95098.34
2018-07-03T14:27:25.469Z,95104.66
2018-07-03T14:29:51.465Z,95102.47
2018-07-03T14:32:17.482Z,95103.05
2018-07-03T14:34:43.489Z,95103.62
2018-07-03T14:37:09.500Z,95100.29
2018-07-03T14:39:35.506Z,95098.74
2018-07-03T14:42:01.522Z,95097.97
2018-07-03T14:44:27.515Z,95099.92
2018-07-03T14:46:53.519Z,95100.73
2018-07-03T14:49:19.517Z,95096.59
2018-07-03T14:51:45.528Z,95096.62
2018-07-03T14:54:11.543Z,95094.84
2018-07-03T14:56:37.549Z,95095.24
2018-07-03T14:59:03.557Z,95102.75
2018-07-03T15:01:29.573Z,95103.16
2018-07-03T15:03:55.574Z,95103.19
2018-07-03T15:06:21.580Z,95103.59
2018-07-03T15:08:47.579Z,95100.66
2018-07-03T15:11:13.625Z,95098.88
2018-07-03T15:13:39.629Z,95094.94
2018-07-03T15:16:05.622Z,95101.67
2018-07-03T15:18:31.625Z,95100.69
2018-07-03T15:20:57.628Z,95099.48
2018-07-03T15:23:23.650Z,95101.03
2018-07-03T15:25:49.707Z,95108.34
2018-07-03T15:28:15.670Z,95107.16
2018-07-03T15:30:41.713Z,95108.17
2018-07-03T15:33:07.737Z,95114.87
2018-07-03T15:35:33.741Z,95109.17
2018-07-03T15:37:59.762Z,95118.27
2018-07-03T15:40:25.773Z,95121.80
2018-07-03T15:42:51.805Z,95119.45
2018-07-03T15:45:17.818Z,95116.69
2018-07-03T15:47:43.825Z,95127.95
2018-07-03T15:50:09.882Z,95133.65
2018-07-03T15:52:35.889Z,95129.51
2018-07-03T15:55:01.904Z,95129.70
2018-07-03T15:57:28.355Z,95137.38
2018-07-03T15:59:54.416Z,95137.79
2018-07-03T16:02:20.433Z,95140.58
2018-07-03T16:04:46.627Z,95139.61
2018-07-03T16:07:12.648Z,95139.23
2018-07-03T16:09:38.629Z,95136.07
2018-07-03T16:12:04.646Z,95144.95
2018-07-03T16:14:30.666Z,95146.91
2018-07-03T16:16:56.704Z,95143.75
2018-07-03T16:19:22.869Z,95145.70
2018-07-03T16:21:48.843Z,95148.45
2018-07-03T16:24:14.847Z,95149.44
2018-07-03T16:26:40.883Z,95143.14
2018-07-03T16:29:06.895Z,95139.57
2018-07-03T16:31:32.916Z,95142.73
2018-07-03T16:33:59.126Z,95147.85
2018-07-03T16:36:25.212Z,95145.90
2018-07-03T16:38:51.261Z,95148.83
2018-07-03T16:41:17.248Z,95156.13
2018-07-03T16:43:43.300Z,95162.22
2018-07-03T16:46:09.317Z,95163.60
2018-07-03T16:48:37.324Z,95162.45
2018-07-03T16:51:01.369Z,95164.81
2018-07-03T16:53:27.428Z,95159.86
2018-07-03T16:55:53.390Z,95155.16
2018-07-03T16:58:19.400Z,95157.52
2018-07-03T17:00:45.503Z,95172.28
2018-07-03T17:03:11.500Z,95188.67
2018-07-03T17:05:37.494Z,95185.11
2018-07-03T17:08:03.505Z,95197.53
2018-07-03T17:10:29.509Z,95195.17
2018-07-03T17:12:55.510Z,95198.74
2018-07-03T17:15:21.514Z,95200.29
2018-07-03T17:17:47.522Z,95198.91
2018-07-03T17:20:13.525Z,95201.67
2018-07-03T17:22:39.530Z,95207.36
2018-07-03T17:25:05.607Z,95208.73
2018-07-03T17:27:31.611Z,95217.62
2018-07-03T17:29:57.622Z,95218.02
2018-07-03T17:32:23.623Z,95230.04
2018-07-03T17:34:49.624Z,95233.58
2018-07-03T17:37:15.623Z,95234.34
2018-07-03T17:39:41.626Z,95234.18
2018-07-03T17:42:07.625Z,95235.73
2018-07-03T17:44:33.637Z,95232.16
2018-07-03T17:46:59.783Z,95230.78
2018-07-03T17:49:25.766Z,95236.70
2018-07-03T17:51:51.777Z,95239.06
2018-07-03T17:54:17.889Z,95237.52
2018-07-03T17:56:43.888Z,95243.20
2018-07-03T17:59:09.895Z,95232.97
2018-07-03T18:01:35.900Z,95237.52
2018-07-03T18:04:01.918Z,95234.55
2018-07-03T18:06:27.993Z,95234.75
2018-07-03T18:08:54.011Z,95235.16
2018-07-03T18:11:20.041Z,95238.48
2018-07-03T18:13:46.066Z,95235.52
2018-07-03T18:16:12.085Z,95233.73
2018-07-03T18:18:38.092Z,95239.66
2018-07-03T18:21:04.107Z,95240.44
2018-07-03T18:23:30.138Z,95238.69
2018-07-03T18:25:56.193Z,95237.07
2018-07-03T18:28:22.170Z,95240.23
2018-07-03T18:30:48.188Z,95239.66
2018-07-03T18:33:14.226Z,95239.25
2018-07-03T18:35:40.246Z,95249.09
2018-07-03T18:38:06.371Z,95244.95
2018-07-03T18:40:32.516Z,95247.13
2018-07-03T18:42:58.524Z,95258.17
2018-07-03T18:45:24.572Z,95260.94
2018-07-03T18:47:50.590Z,95258.17
2018-07-03T18:50:16.601Z,95260.53
2018-07-03T18:52:42.627Z,95259.15
2018-07-03T18:55:08.630Z,95263.69
2018-07-03T18:57:34.642Z,95259.95
2018-07-03T19:00:00.642Z,95263.12
2018-07-03T19:02:26.649Z,95262.31
2018-07-03T19:04:52.666Z,95269.21
2018-07-03T19:07:18.686Z,95265.07
2018-07-03T19:09:44.691Z,95265.07
2018-07-03T19:12:10.690Z,95271.56
2018-07-03T19:14:36.691Z,95272.95
2018-07-03T19:17:02.692Z,95276.28
2018-07-03T19:19:28.715Z,95277.09
2018-07-03T19:21:54.730Z,95279.84
2018-07-03T19:24:20.749Z,95285.77
2018-07-03T19:26:46.751Z,95290.88
2018-07-03T19:29:12.854Z,95296.41
2018-07-03T19:31:38.857Z,95292.47
2018-07-03T19:34:04.872Z,95304.28
2018-07-03T19:36:31.001Z,95300.95
2018-07-03T19:38:57.023Z,95294.62
2018-07-03T19:41:23.042Z,95291.86
2018-07-03T19:43:51.817Z,95300.55
2018-07-03T19:46:17.842Z,95302.91
2018-07-03T19:48:43.860Z,95305.90
2018-07-03T19:51:09.880Z,95305.50
2018-07-03T19:53:35.912Z,95304.92
2018-07-03T19:56:01.921Z,95306.67
2018-07-03T19:58:27.932Z,95307.69
2018-07-03T20:00:53.933Z,95304.52
2018-07-03T20:03:20.138Z,95303.14
2018-07-03T20:05:46.268Z,95304.92
2018-07-03T20:08:12.266Z,95303.71
2018-07-03T20:10:38.296Z,95303.34
2018-07-03T20:13:04.357Z,95303.14
2018-07-03T20:15:30.306Z,95309.64
2018-07-03T20:17:56.310Z,95299.16
2018-07-03T20:20:22.328Z,95305.50
2018-07-03T20:22:48.487Z,95306.87
2018-07-03T20:25:14.510Z,95302.33
2018-07-03T20:27:40.514Z,95308.66
2018-07-03T20:30:06.551Z,95304.92
2018-07-03T20:32:32.523Z,95302.33
2018-07-03T20:34:58.548Z,95302.73
2018-07-03T20:37:24.555Z,95294.86
2018-07-03T20:39:50.551Z,95290.72
2018-07-03T20:42:16.548Z,95291.50
2018-07-03T20:44:42.551Z,95293.52
2018-07-03T20:47:08.551Z,95289.55
2018-07-03T20:49:34.581Z,95286.62
2018-07-03T20:52:00.557Z,95296.85
2018-07-03T20:54:26.560Z,95296.48
2018-07-03T20:56:52.589Z,95298.84
2018-07-03T20:59:18.574Z,95296.69
2018-07-03T21:01:44.575Z,95301.80
2018-07-03T21:04:10.599Z,95302.77
2018-07-03T21:06:36.585Z,95301.39
2018-07-03T21:09:02.586Z,95310.08
2018-07-03T21:11:28.587Z,95300.42
2018-07-03T21:13:54.583Z,95298.23
2018-07-03T21:16:20.583Z,95299.20
2018-07-03T21:18:46.594Z,95296.28
2018-07-03T21:21:12.595Z,95297.25
2018-07-03T21:23:38.593Z,95299.81
2018-07-03T21:26:04.596Z,95298.23
2018-07-03T21:28:30.603Z,95296.69
2018-07-03T21:30:56.601Z,95300.98
2018-07-03T21:33:22.606Z,95300.42
2018-07-03T21:35:48.612Z,95305.34
2018-07-03T21:38:14.617Z,95310.69
2018-07-03T21:40:40.616Z,95310.28
2018-07-03T21:43:06.626Z,95307.52
2018-07-03T21:45:32.644Z,95310.69
2018-07-03T21:47:58.654Z,95305.57
2018-07-03T21:50:24.688Z,95302.41
2018-07-03T21:52:50.654Z,95307.13
2018-07-03T21:55:16.661Z,95302.81
2018-07-03T21:57:42.700Z,95301.03
2018-07-03T22:00:08.706Z,95300.05
2018-07-03T22:02:34.703Z,95302.41
2018-07-03T22:05:00.735Z,95299.25
2018-07-03T22:07:26.726Z,95299.08
2018-07-03T22:09:52.723Z,95297.70
2018-07-03T22:12:18.733Z,95294.53
2018-07-03T22:14:44.731Z,95294.53
2018-07-03T22:17:10.734Z,95288.44
2018-07-03T22:19:36.731Z,95284.30
2018-07-03T22:22:02.736Z,95285.68
2018-07-03T22:24:28.901Z,95286.45
2018-07-03T22:26:54.866Z,95287.84
2018-07-03T22:29:20.876Z,95284.67
2018-07-03T22:31:46.870Z,95290.20
2018-07-03T22:34:12.878Z,95285.89
2018-07-03T22:36:38.875Z,95282.31
2018-07-03T22:39:04.885Z,95277.44
2018-07-03T22:41:30.875Z,95272.49
2018-07-03T22:43:56.912Z,95278.41
2018-07-03T22:46:22.914Z,95279.80
2018-07-03T22:48:48.920Z,95279.80
2018-07-03T22:51:14.928Z,95284.71
2018-07-03T22:53:41.047Z,95283.33
2018-07-03T22:56:07.067Z,95281.17
2018-07-03T22:58:33.270Z,95276.84
2018-07-03T23:00:59.202Z,95279.39
2018-07-03T23:03:25.209Z,95279.19
2018-07-03T23:05:52.231Z,95276.44
2018-07-03T23:08:17.226Z,95275.05
2018-07-03T23:10:43.227Z,95274.48
2018-07-03T23:13:09.345Z,95275.05
2018-07-03T23:15:35.470Z,95274.89
2018-07-03T23:18:01.575Z,95276.84
2018-07-03T23:20:27.722Z,95278.62
2018-07-03T23:22:53.759Z,95277.64
2018-07-03T23:25:19.760Z,95281.63
2018-07-03T23:27:45.944Z,95287.30
2018-07-03T23:30:11.931Z,95291.69
2018-07-03T23:32:37.950Z,95296.20
2018-07-03T23:35:03.980Z,95293.06
2018-07-03T23:37:29.983Z,95297.58
2018-07-03T23:39:56.015Z,95298.39
2018-07-03T23:42:22.015Z,95294.05
2018-07-03T23:44:48.011Z,95294.25
2018-07-03T23:47:14.022Z,95292.46
2018-07-03T23:49:40.028Z,95293.44
2018-07-03T23:52:06.032Z,95294.45
2018-07-03T23:54:32.043Z,95293.84
2018-07-03T23:56:58.089Z,95300.58
2018-07-03T23:59:24.159Z,95302.53
